Eighty Four, Pennsylvania
Current Conditions -  °F | °C
As of 1:15 AM on Thursday 23 Oct 2014 (Local Time) from KAFJ Reporting Station
Overcast Overcast  
Wind Chill:   Ceiling: 4100
Heat Index:   Visibility: 10mi
Dew Point:   Wind: 7mph
Humidity: 81%   Direction: 290°WNW
Pressure: 30.17"   Gusts: NA
Location:  40.18°N, 80.13°W
Report Text: KAFJ 230515Z AUTO 29006KT 10SM FEW018 OVC041 07/04 A3017 RMK AO1
Loading
Personal Weather Stations






























Interactive Weather Map
Tropical Storm Tracking
New forecast layout! Learn more

10-Day Weather Forecast

Advertisements
Track Severe Weather on mobile